Time;durP1;ratioP1;P1;durP2;ratioP2;P2;SDS_P1;SDS_P2;PMS_P1;PMS_P2;Temp;Humidity;BMP_temperature;BMP_pressure;BME280_temperature;BME280_humidity;BME280_pressure;Samples;Min_cycle;Max_cycle;Signal;HPM_P1;HPM_P2
2022/04/18 00:00:05;;;;;;;2.88;2.67;;;6.40;79.00;;;;;;5073988;28;20266;-89
2022/04/18 00:02:34;;;;;;;3.88;3.10;;;6.40;80.00;;;;;;5073576;28;20244;-89
2022/04/18 00:05:03;;;;;;;3.83;2.83;;;6.30;80.30;;;;;;5073066;28;20201;-89
2022/04/18 00:07:33;;;;;;;3.10;2.67;;;6.30;79.30;;;;;;5073597;28;20201;-89
2022/04/18 00:10:01;;;;;;;3.47;3.17;;;6.30;79.70;;;;;;5073376;28;20296;-89
2022/04/18 00:12:30;;;;;;;3.25;2.95;;;6.20;80.60;;;;;;5073052;28;20293;-89
2022/04/18 00:14:58;;;;;;;2.90;2.38;;;6.20;80.20;;;;;;5073714;28;20235;-89
2022/04/18 00:17:27;;;;;;;3.42;3.00;;;6.20;81.10;;;;;;5073981;28;20205;-89
2022/04/18 00:19:55;;;;;;;2.90;2.58;;;6.20;81.20;;;;;;5073766;28;20296;-90
2022/04/18 00:22:24;;;;;;;2.97;2.72;;;6.20;80.80;;;;;;5073099;28;20221;-89
2022/04/18 00:24:54;;;;;;;3.70;2.88;;;6.10;80.80;;;;;;5073418;28;20205;-89
2022/04/18 00:27:22;;;;;;;3.75;3.05;;;6.10;81.10;;;;;;5073570;28;20220;-90
2022/04/18 00:29:51;;;;;;;3.45;2.60;;;6.10;81.00;;;;;;5072960;28;20227;-89
2022/04/18 00:32:20;;;;;;;4.68;2.85;;;6.10;81.40;;;;;;5072988;28;20290;-89
2022/04/18 00:34:49;;;;;;;2.78;2.58;;;6.10;82.40;;;;;;5072343;28;20272;-88
2022/04/18 00:37:18;;;;;;;3.35;3.08;;;6.00;83.60;;;;;;5074130;28;20200;-89
2022/04/18 00:39:47;;;;;;;3.30;3.00;;;6.00;82.00;;;;;;5074067;28;20399;-89
2022/04/18 00:42:17;;;;;;;2.70;2.50;;;6.00;82.70;;;;;;5073335;28;20217;-89
2022/04/18 00:44:45;;;;;;;2.90;2.63;;;6.00;83.80;;;;;;5074069;28;20300;-90
2022/04/18 00:47:14;;;;;;;3.10;2.67;;;5.90;82.90;;;;;;5073185;28;20209;-89
2022/04/18 00:49:43;;;;;;;4.18;3.47;;;5.90;82.70;;;;;;5074135;28;20213;-89
2022/04/18 00:52:12;;;;;;;2.45;2.20;;;5.90;85.10;;;;;;5073670;28;20224;-90
2022/04/18 00:54:42;;;;;;;3.42;3.13;;;5.90;86.30;;;;;;5073283;28;20205;-89
2022/04/18 00:57:11;;;;;;;3.75;3.03;;;5.90;86.50;;;;;;5073840;28;20232;-88
2022/04/18 00:59:43;;;;;;;3.80;3.20;;;5.90;85.10;;;;;;5073952;28;20246;-88
2022/04/18 01:02:14;;;;;;;2.92;2.72;;;5.90;84.80;;;;;;5074034;28;20290;-89
2022/04/18 01:04:42;;;;;;;3.92;3.20;;;5.80;84.80;;;;;;5073706;28;20201;-89
2022/04/18 01:07:12;;;;;;;2.90;2.63;;;5.80;84.00;;;;;;5073768;28;20205;-89
2022/04/18 01:09:41;;;;;;;3.38;2.67;;;5.80;85.80;;;;;;5073218;28;20197;-88
2022/04/18 01:12:09;;;;;;;3.47;2.60;;;5.80;86.90;;;;;;5072979;28;20233;-88
2022/04/18 01:14:38;;;;;;;4.32;2.95;;;5.80;85.90;;;;;;5073433;28;20201;-89
2022/04/18 01:17:08;;;;;;;3.88;3.28;;;5.80;88.60;;;;;;5074221;28;20251;-88
2022/04/18 01:19:36;;;;;;;2.55;2.35;;;5.70;88.30;;;;;;5073263;28;20251;-89
2022/04/18 01:22:07;;;;;;;3.45;2.90;;;5.70;90.00;;;;;;5072754;28;20247;-89
2022/04/18 01:30:07;;;;;;;2.55;2.38;;;5.60;90.50;;;;;;5073723;28;20310;-88
2022/04/18 01:32:36;;;;;;;7.70;2.92;;;5.50;90.60;;;;;;5072989;28;20259;-89
2022/04/18 01:35:05;;;;;;;3.70;3.40;;;5.40;90.50;;;;;;5073359;28;20213;-88
2022/04/18 01:37:36;;;;;;;2.90;2.65;;;5.50;91.00;;;;;;5073081;28;20209;-89
2022/04/18 01:40:05;;;;;;;3.20;2.92;;;5.40;91.80;;;;;;5072796;28;20229;-89
2022/04/18 01:42:34;;;;;;;3.22;2.65;;;5.40;91.60;;;;;;5072789;28;20282;-90
2022/04/18 01:45:02;;;;;;;4.22;2.97;;;5.40;92.20;;;;;;5073010;28;20258;-90
2022/04/18 01:47:31;;;;;;;2.67;2.47;;;5.40;92.60;;;;;;5072833;28;20259;-89
2022/04/18 01:49:59;;;;;;;4.18;3.78;;;5.30;91.50;;;;;;5073083;28;20228;-90
2022/04/18 01:52:28;;;;;;;4.43;3.67;;;5.30;91.60;;;;;;5072759;28;20256;-89
2022/04/18 01:54:58;;;;;;;3.33;2.88;;;5.30;92.10;;;;;;5073118;28;20240;-89
2022/04/18 01:57:26;;;;;;;2.97;2.30;;;5.40;92.30;;;;;;5073399;28;20220;-88
2022/04/18 01:59:54;;;;;;;4.25;3.38;;;5.30;92.40;;;;;;5072815;28;20213;-89
2022/04/18 02:02:23;;;;;;;3.97;2.95;;;5.30;92.30;;;;;;5072831;28;20270;-89
2022/04/18 02:04:51;;;;;;;3.08;2.83;;;5.30;92.40;;;;;;5072238;28;20201;-90
2022/04/18 02:07:19;;;;;;;3.60;3.30;;;5.30;94.00;;;;;;5073010;28;20198;-90
2022/04/18 02:09:48;;;;;;;7.93;4.03;;;5.30;92.70;;;;;;5073939;28;20205;-89
2022/04/18 02:12:18;;;;;;;2.78;2.58;;;5.30;93.00;;;;;;5075966;28;20248;-90
2022/04/18 02:14:46;;;;;;;3.40;3.10;;;5.30;92.10;;;;;;5076078;28;20229;-90
2022/04/18 02:17:15;;;;;;;4.60;3.03;;;5.20;93.10;;;;;;5075911;28;20247;-90
2022/04/18 02:19:44;;;;;;;3.42;3.13;;;5.20;92.80;;;;;;5076204;28;20225;-90
2022/04/18 02:22:13;;;;;;;4.20;3.63;;;5.20;91.90;;;;;;5075905;28;20249;-90
2022/04/18 02:24:41;;;;;;;3.50;3.20;;;5.20;92.70;;;;;;5076352;28;20232;-90
2022/04/18 02:27:10;;;;;;;2.92;2.72;;;5.20;92.30;;;;;;5076024;28;20240;-90
2022/04/18 02:29:40;;;;;;;3.60;3.30;;;5.10;92.00;;;;;;5075227;28;20213;-88
2022/04/18 02:34:55;;;;;;;3.20;2.95;;;5.10;93.30;;;;;;5075580;28;20228;-90
2022/04/18 02:37:24;;;;;;;4.20;3.08;;;5.10;92.50;;;;;;5076046;28;20228;-89
2022/04/18 02:39:54;;;;;;;3.63;3.28;;;5.10;93.30;;;;;;5075744;28;20197;-89
2022/04/18 02:42:22;;;;;;;2.67;2.47;;;5.00;93.80;;;;;;5075075;28;20216;-89
2022/04/18 02:44:52;;;;;;;4.32;3.17;;;5.00;93.80;;;;;;5075843;28;20221;-89
2022/04/18 02:47:22;;;;;;;4.25;2.92;;;5.00;94.20;;;;;;5075486;28;20207;-90
2022/04/18 02:49:51;;;;;;;4.03;3.20;;;5.00;93.80;;;;;;5075678;28;20232;-89
2022/04/18 02:52:19;;;;;;;3.80;3.42;;;5.00;93.60;;;;;;5075489;28;20225;-90
2022/04/18 02:54:47;;;;;;;4.70;3.08;;;4.90;93.70;;;;;;5075757;28;20255;-90
2022/04/18 02:57:16;;;;;;;4.07;3.42;;;4.90;94.10;;;;;;5075553;28;20224;-89
2022/04/18 02:59:44;;;;;;;3.80;3.00;;;4.90;96.30;;;;;;5075029;28;20209;-90
2022/04/18 03:02:14;;;;;;;3.63;3.15;;;4.80;95.30;;;;;;5074678;28;20244;-90
2022/04/18 03:04:43;;;;;;;4.50;3.53;;;4.80;96.60;;;;;;5075157;28;20280;-90
2022/04/18 03:07:11;;;;;;;4.13;2.83;;;4.80;96.20;;;;;;5075240;28;20231;-90
2022/04/18 03:09:40;;;;;;;6.88;3.10;;;4.80;94.80;;;;;;5075228;28;20243;-90
2022/04/18 03:12:09;;;;;;;3.35;2.88;;;4.80;95.10;;;;;;5074894;28;20308;-90
2022/04/18 03:14:37;;;;;;;3.95;3.03;;;4.80;97.10;;;;;;5074932;28;20247;-90
2022/04/18 03:17:05;;;;;;;3.65;3.35;;;4.80;95.50;;;;;;5075099;28;20229;-90
2022/04/18 03:19:36;;;;;;;3.78;3.40;;;4.80;96.10;;;;;;5074908;28;20213;-90
2022/04/18 03:22:04;;;;;;;5.68;3.17;;;4.80;96.50;;;;;;5073406;28;20305;-90
2022/04/18 03:24:33;;;;;;;4.70;3.45;;;4.70;95.80;;;;;;5074628;28;20224;-90
2022/04/18 03:27:02;;;;;;;3.20;3.00;;;4.70;96.90;;;;;;5074691;28;20232;-90
2022/04/18 03:29:31;;;;;;;3.20;2.85;;;4.70;96.30;;;;;;5074543;28;20209;-90
2022/04/18 03:32:00;;;;;;;5.88;3.80;;;4.60;97.10;;;;;;5074321;28;20237;-89
2022/04/18 03:34:28;;;;;;;5.00;4.07;;;4.70;96.50;;;;;;5074646;28;20308;-89
2022/04/18 03:39:53;;;;;;;3.42;3.13;;;4.70;96.30;;;;;;5074867;28;20228;-90
2022/04/18 03:42:30;;;;;;;3.75;3.33;;;4.70;97.80;;;;;;5074149;28;20254;-89
2022/04/18 03:45:00;;;;;;;3.35;2.78;;;4.60;97.40;;;;;;5073950;28;20192;-90
2022/04/18 03:47:29;;;;;;;3.85;3.13;;;4.60;97.00;;;;;;5082459;28;20239;-90
2022/04/18 03:49:58;;;;;;;2.85;2.65;;;4.60;97.50;;;;;;5080803;28;20205;-90
2022/04/18 03:52:28;;;;;;;3.10;2.80;;;4.60;99.70;;;;;;5082220;28;20282;-89
2022/04/18 03:54:56;;;;;;;3.03;2.83;;;4.50;98.30;;;;;;5091385;28;20224;-90
2022/04/18 03:57:24;;;;;;;4.40;3.15;;;4.50;97.60;;;;;;5092291;28;20201;-91
2022/04/18 03:59:53;;;;;;;3.10;2.80;;;4.50;98.60;;;;;;5092813;28;20240;-90
2022/04/18 04:02:21;;;;;;;3.78;3.38;;;4.50;98.20;;;;;;5092303;28;20228;-89
2022/04/18 04:04:50;;;;;;;2.80;2.60;;;4.50;98.30;;;;;;5092442;28;20304;-90
2022/04/18 04:07:18;;;;;;;2.53;2.33;;;4.50;98.10;;;;;;5093937;28;20205;-88
2022/04/18 04:09:48;;;;;;;2.80;2.63;;;4.50;98.10;;;;;;5093649;28;20212;-89
2022/04/18 04:12:23;;;;;;;3.17;2.92;;;4.50;98.50;;;;;;5092905;28;20209;-90
2022/04/18 04:14:52;;;;;;;3.80;3.22;;;4.60;98.20;;;;;;5093206;28;20267;-90
2022/04/18 04:17:26;;;;;;;3.00;2.78;;;4.60;99.90;;;;;;5092835;28;20219;-89
2022/04/18 04:20:15;;;;;;;3.50;3.22;;;4.60;98.80;;;;;;5092800;28;20221;-90
2022/04/18 04:22:44;;;;;;;2.90;2.65;;;4.60;99.80;;;;;;5092445;28;20216;-91
2022/04/18 04:25:14;;;;;;;3.78;3.15;;;4.60;99.00;;;;;;5078458;28;20201;-90
2022/04/18 04:27:43;;;;;;;3.80;3.22;;;4.60;99.50;;;;;;5074476;28;20280;-90
2022/04/18 04:30:11;;;;;;;13.82;3.00;;;4.60;98.50;;;;;;5073479;28;20205;-88
2022/04/18 04:32:40;;;;;;;2.58;2.38;;;4.70;99.60;;;;;;5073733;28;20256;-88
2022/04/18 04:35:09;;;;;;;3.25;2.83;;;4.70;99.20;;;;;;5078163;28;20247;-89
2022/04/18 04:37:37;;;;;;;3.05;2.85;;;4.80;98.00;;;;;;5089273;28;20221;-89
2022/04/18 04:40:08;;;;;;;3.53;2.95;;;4.90;98.40;;;;;;5078766;28;20209;-89
2022/04/18 04:42:38;;;;;;;2.83;2.63;;;5.00;97.20;;;;;;5081250;28;20251;-88
2022/04/18 04:45:07;;;;;;;5.18;3.60;;;5.10;98.00;;;;;;5090015;28;20212;-89
2022/04/18 04:47:35;;;;;;;2.83;2.63;;;5.10;97.70;;;;;;5085776;28;20201;-89
2022/04/18 04:50:03;;;;;;;3.50;3.10;;;5.20;96.80;;;;;;5078088;28;20250;-89
2022/04/18 04:52:32;;;;;;;2.97;2.65;;;5.30;95.80;;;;;;5074861;28;20225;-89
2022/04/18 04:55:01;;;;;;;2.90;2.63;;;5.40;96.80;;;;;;5073591;28;20332;-89
2022/04/18 04:57:29;;;;;;;3.78;3.47;;;5.50;96.40;;;;;;5073166;28;20239;-89
2022/04/18 04:59:59;;;;;;;2.88;2.65;;;5.60;95.60;;;;;;5072778;28;20201;-89
2022/04/18 05:02:27;;;;;;;3.05;2.70;;;5.60;95.60;;;;;;5073088;28;20217;-89
2022/04/18 05:04:55;;;;;;;3.92;2.78;;;5.70;95.60;;;;;;5072762;28;20205;-89
2022/04/18 05:07:24;;;;;;;3.58;2.90;;;5.70;96.40;;;;;;5072624;28;20290;-89
2022/04/18 05:09:52;;;;;;;5.93;3.58;;;5.80;95.60;;;;;;5072872;28;20201;-88
2022/04/18 05:12:21;;;;;;;2.45;2.30;;;5.80;95.10;;;;;;5072349;28;20266;-90
2022/04/18 05:14:49;;;;;;;3.22;2.92;;;5.90;94.70;;;;;;5072670;28;20266;-89
2022/04/18 05:17:19;;;;;;;4.32;2.75;;;5.90;94.60;;;;;;5072848;28;20197;-89
2022/04/18 05:19:47;;;;;;;3.15;2.85;;;5.90;95.30;;;;;;5072856;28;20205;-89
2022/04/18 05:22:16;;;;;;;4.57;3.33;;;5.90;95.20;;;;;;5072815;28;20229;-89
2022/04/18 05:24:44;;;;;;;2.80;2.60;;;6.00;95.30;;;;;;5072848;28;20292;-89
2022/04/18 05:27:15;;;;;;;2.88;2.65;;;6.10;94.50;;;;;;5072654;28;20232;-89
2022/04/18 05:29:43;;;;;;;2.88;2.60;;;6.10;94.60;;;;;;5072778;28;20205;-89
2022/04/18 05:32:12;;;;;;;3.42;3.13;;;6.20;94.30;;;;;;5072294;28;20225;-89
2022/04/18 05:34:42;;;;;;;3.08;2.80;;;6.30;94.40;;;;;;5072403;28;20220;-89
2022/04/18 05:37:11;;;;;;;3.30;3.00;;;6.30;94.10;;;;;;5072649;28;20213;-89
2022/04/18 05:39:39;;;;;;;2.97;2.67;;;6.40;93.80;;;;;;5072538;28;20270;-89
2022/04/18 05:42:08;;;;;;;2.33;2.13;;;6.50;93.40;;;;;;5072637;28;20252;-88
2022/04/18 05:44:36;;;;;;;2.78;2.58;;;6.50;93.10;;;;;;5072802;28;20243;-89
2022/04/18 05:47:06;;;;;;;1.92;1.83;;;6.60;92.30;;;;;;5076338;28;20331;-88
2022/04/18 05:49:34;;;;;;;2.33;2.13;;;6.60;92.10;;;;;;5076256;28;20243;-89
2022/04/18 05:52:04;;;;;;;2.47;2.28;;;6.60;92.10;;;;;;5076153;28;20251;-88
2022/04/18 05:54:33;;;;;;;2.45;2.25;;;6.60;92.80;;;;;;5075917;28;20227;-89
2022/04/18 05:57:05;;;;;;;3.35;3.05;;;6.60;92.20;;;;;;5075898;28;20209;-89
2022/04/18 05:59:34;;;;;;;3.28;2.70;;;6.70;93.70;;;;;;5075806;28;20204;-89
2022/04/18 06:02:02;;;;;;;2.63;2.42;;;6.80;92.80;;;;;;5075643;28;20312;-89
2022/04/18 06:04:30;;;;;;;3.30;3.00;;;6.90;92.50;;;;;;5075824;28;20201;-88
2022/04/18 06:06:59;;;;;;;2.85;2.53;;;6.90;91.70;;;;;;5075986;28;20281;-88
2022/04/18 06:09:29;;;;;;;4.55;2.88;;;7.00;92.50;;;;;;5075829;28;20209;-89
2022/04/18 06:11:58;;;;;;;3.05;2.40;;;7.20;91.80;;;;;;5075771;28;20252;-89
2022/04/18 06:14:26;;;;;;;3.20;2.55;;;7.30;91.70;;;;;;5075564;28;20221;-89
2022/04/18 06:16:54;;;;;;;7.07;2.50;;;7.40;91.50;;;;;;5075597;28;20292;-88
2022/04/18 06:19:23;;;;;;;4.00;2.88;;;7.50;90.90;;;;;;5075613;28;20239;-89
2022/04/18 06:21:52;;;;;;;2.47;2.28;;;7.50;90.40;;;;;;5075341;28;20225;-89
2022/04/18 06:24:21;;;;;;;2.40;2.20;;;7.60;90.30;;;;;;5075856;28;20227;-89
2022/04/18 06:26:51;;;;;;;3.33;2.90;;;7.50;90.40;;;;;;5075618;28;20217;-89
2022/04/18 06:29:19;;;;;;;2.17;2.00;;;7.60;90.30;;;;;;5075728;28;20205;-88
2022/04/18 06:31:49;;;;;;;1.95;1.83;;;7.70;90.10;;;;;;5075526;28;20255;-89
2022/04/18 06:34:18;;;;;;;2.58;2.22;;;7.80;90.50;;;;;;5075926;28;20284;-88
2022/04/18 06:36:47;;;;;;;2.40;2.20;;;7.80;91.20;;;;;;5075421;28;20274;-88
2022/04/18 06:39:15;;;;;;;2.25;2.10;;;7.90;88.90;;;;;;5075574;28;20292;-88
2022/04/18 06:41:43;;;;;;;2.58;2.38;;;7.90;88.70;;;;;;5074801;28;20221;-88
2022/04/18 06:44:13;;;;;;;1.98;1.88;;;7.90;90.10;;;;;;5075107;28;20233;-89
2022/04/18 06:46:42;;;;;;;2.42;2.22;;;8.00;90.60;;;;;;5075784;28;20296;-88
2022/04/18 06:49:10;;;;;;;3.10;2.45;;;8.10;90.10;;;;;;5075412;28;20255;-89
2022/04/18 06:51:39;;;;;;;1.90;1.80;;;8.20;89.80;;;;;;5075112;28;20221;-88
2022/04/18 06:54:07;;;;;;;2.53;2.33;;;8.30;89.50;;;;;;5075056;28;20201;-88
2022/04/18 06:59:23;;;;;;;2.13;2.03;;;8.10;87.50;;;;;;5075005;28;20296;-89
2022/04/18 07:01:51;;;;;;;2.40;2.20;;;8.00;87.80;;;;;;5074966;28;20303;-88
2022/04/18 07:04:19;;;;;;;3.25;2.33;;;7.90;87.20;;;;;;5074937;28;20216;-88
2022/04/18 07:06:48;;;;;;;2.35;2.15;;;7.90;87.80;;;;;;5075133;28;20201;-88
2022/04/18 07:09:16;;;;;;;7.13;2.35;;;7.90;87.80;;;;;;5074895;28;20291;-88
2022/04/18 07:11:45;;;;;;;2.20;2.10;;;7.80;87.30;;;;;;5074847;28;20274;-88
2022/04/18 07:14:13;;;;;;;1.98;1.80;;;7.70;87.70;;;;;;5074978;28;20272;-88
2022/04/18 07:16:44;;;;;;;2.47;2.30;;;7.70;88.60;;;;;;5074493;28;20244;-89
2022/04/18 07:19:12;;;;;;;2.28;2.10;;;7.70;89.60;;;;;;5074950;28;20221;-88
2022/04/18 07:21:41;;;;;;;2.00;1.90;;;7.70;88.70;;;;;;5074282;28;20255;-88
2022/04/18 07:24:10;;;;;;;2.60;1.83;;;7.70;88.90;;;;;;5074625;28;20201;-88
2022/04/18 07:26:39;;;;;;;2.53;2.25;;;7.80;88.80;;;;;;5074686;28;20223;-87
2022/04/18 07:29:07;;;;;;;2.53;2.33;;;7.70;87.70;;;;;;5074550;28;20205;-88
2022/04/18 07:31:35;;;;;;;2.10;1.92;;;7.70;88.80;;;;;;5074354;28;20229;-88
2022/04/18 07:34:05;;;;;;;6.18;2.42;;;7.70;87.70;;;;;;5074591;28;20208;-89
2022/04/18 07:36:33;;;;;;;6.15;2.17;;;7.60;87.60;;;;;;5073766;28;20308;-88
2022/04/18 07:39:02;;;;;;;2.20;2.05;;;7.50;88.10;;;;;;5074333;28;20289;-88
2022/04/18 07:41:31;;;;;;;2.63;2.33;;;7.60;89.70;;;;;;5073967;28;20251;-88
2022/04/18 07:44:01;;;;;;;4.43;2.85;;;7.70;88.30;;;;;;5074012;28;20201;-88
2022/04/18 07:46:30;;;;;;;2.53;1.77;;;7.70;88.20;;;;;;5074049;28;20224;-89
2022/04/18 07:48:59;;;;;;;2.38;2.17;;;7.70;89.40;;;;;;5074058;28;20197;-88
2022/04/18 07:51:39;;;;;;;2.13;2.03;;;7.70;89.20;;;;;;5073959;28;20244;-88
2022/04/18 07:54:09;;;;;;;2.40;2.20;;;7.70;90.40;;;;;;5074266;28;20260;-88
2022/04/18 07:56:38;;;;;;;2.42;2.13;;;7.70;89.30;;;;;;5073740;28;20225;-88
2022/04/18 07:59:07;;;;;;;5.45;2.75;;;7.70;89.30;;;;;;5073765;28;20288;-88
2022/04/18 08:01:35;;;;;;;2.65;2.17;;;7.70;89.20;;;;;;5073447;28;20229;-88
2022/04/18 08:04:04;;;;;;;3.22;2.20;;;7.80;90.30;;;;;;5073719;28;20205;-88
2022/04/18 08:06:34;;;;;;;4.15;2.15;;;7.80;90.50;;;;;;5074023;28;20205;-88
2022/04/18 08:09:04;;;;;;;2.08;1.95;;;7.70;91.20;;;;;;5073588;28;20201;-88
2022/04/18 08:11:32;;;;;;;2.00;1.90;;;7.70;92.20;;;;;;5073427;28;20241;-88
2022/04/18 08:14:00;;;;;;;2.15;2.00;;;7.70;91.80;;;;;;5073582;28;20201;-88
2022/04/18 08:16:29;;;;;;;2.22;2.00;;;7.60;91.50;;;;;;5073740;28;20273;-88
2022/04/18 08:18:57;;;;;;;2.10;1.90;;;7.60;92.30;;;;;;5073949;28;20224;-88
2022/04/18 08:21:26;;;;;;;2.08;1.98;;;7.70;91.80;;;;;;5073386;28;20316;-88
2022/04/18 08:23:56;;;;;;;3.28;2.35;;;7.70;92.90;;;;;;5074019;28;20217;-87
2022/04/18 08:26:29;;;;;;;2.05;1.85;;;7.70;93.10;;;;;;5073268;28;20197;-89
2022/04/18 08:28:58;;;;;;;2.53;2.33;;;7.60;93.90;;;;;;5073084;28;20209;-90
2022/04/18 08:31:27;;;;;;;1.58;1.48;;;7.70;96.70;;;;;;5073217;28;20294;-89
2022/04/18 08:33:56;;;;;;;2.47;2.28;;;7.60;95.50;;;;;;5073564;28;20205;-90
2022/04/18 08:36:25;;;;;;;2.25;1.90;;;7.50;96.20;;;;;;5073530;28;20220;-90
2022/04/18 08:38:55;;;;;;;3.60;3.30;;;7.60;96.70;;;;;;5073224;28;20201;-88
2022/04/18 08:41:28;;;;;;;2.90;2.70;;;7.50;99.20;;;;;;5073064;28;20225;-88
2022/04/18 08:43:56;;;;;;;5.65;3.30;;;7.60;96.40;;;;;;5073385;28;20212;-88
2022/04/18 08:46:25;;;;;;;9.35;2.38;;;7.60;96.80;;;;;;5073111;28;20292;-90
2022/04/18 08:54:29;;;;;;;3.67;2.20;;;7.50;95.60;;;;;;5073323;28;20235;-89
2022/04/18 08:56:57;;;;;;;2.95;2.65;;;7.50;95.10;;;;;;5073044;28;20221;-89
2022/04/18 08:59:26;;;;;;;2.75;2.55;;;7.50;95.70;;;;;;5072627;28;20232;-87
2022/04/18 09:01:54;;;;;;;2.85;2.65;;;7.50;95.60;;;;;;5072652;28;20324;-87
2022/04/18 09:04:23;;;;;;;3.45;2.60;;;7.50;94.80;;;;;;5073375;28;20213;-90
2022/04/18 09:06:53;;;;;;;2.22;2.08;;;7.50;95.50;;;;;;5072857;28;20197;-90
2022/04/18 09:09:28;;;;;;;2.88;2.42;;;7.60;95.00;;;;;;5072921;28;20308;-89
2022/04/18 09:11:57;;;;;;;2.33;2.10;;;7.70;94.40;;;;;;5072695;28;20229;-90
2022/04/18 09:14:27;;;;;;;2.95;2.63;;;7.70;94.40;;;;;;5072925;28;20205;-89
2022/04/18 09:16:55;;;;;;;2.38;2.17;;;7.60;94.90;;;;;;5072428;28;20237;-90
2022/04/18 09:19:24;;;;;;;3.88;3.10;;;7.50;95.60;;;;;;5073159;28;20212;-87
2022/04/18 09:22:00;;;;;;;2.85;2.53;;;7.50;96.70;;;;;;5076366;28;20255;-87
2022/04/18 09:24:34;;;;;;;3.63;2.58;;;7.40;97.90;;;;;;5076586;28;20276;-87
2022/04/18 09:27:08;;;;;;;2.60;2.40;;;7.30;97.40;;;;;;5076772;28;20196;-87
2022/04/18 09:29:39;;;;;;;2.03;1.92;;;7.20;98.80;;;;;;5076616;28;20204;-87
2022/04/18 09:32:10;;;;;;;2.50;2.30;;;7.20;99.90;;;;;;5076639;28;20228;-89
2022/04/18 09:34:38;;;;;;;3.05;2.75;;;7.10;99.90;;;;;;5076453;28;20197;-90
2022/04/18 09:37:13;;;;;;;3.10;2.72;;;7.10;99.90;;;;;;5076323;28;20217;-89
2022/04/18 09:39:44;;;;;;;2.50;2.30;;;7.20;99.90;;;;;;5076330;28;20201;-89
2022/04/18 09:42:15;;;;;;;2.60;2.33;;;7.30;99.90;;;;;;5075831;28;20248;-89
2022/04/18 09:44:43;;;;;;;2.63;2.42;;;7.20;99.90;;;;;;5076434;28;20205;-90
2022/04/18 09:47:19;;;;;;;2.78;2.50;;;7.20;99.90;;;;;;5076608;28;20262;-90
2022/04/18 09:49:49;;;;;;;6.90;3.13;;;7.30;99.90;;;;;;5076677;28;20217;-89
2022/04/18 09:52:19;;;;;;;2.75;2.53;;;7.40;99.90;;;;;;5076010;28;20271;-90
2022/04/18 09:54:52;;;;;;;3.83;3.53;;;7.50;99.90;;;;;;5076426;28;20232;-89
2022/04/18 09:57:24;;;;;;;1.98;1.88;;;7.60;99.90;;;;;;5076141;28;20313;-90
2022/04/18 09:59:55;;;;;;;2.63;2.42;;;7.80;99.90;;;;;;5075932;28;20209;-90
2022/04/18 10:02:24;;;;;;;2.38;2.17;;;7.90;99.90;;;;;;5076110;28;20324;-89
2022/04/18 10:04:53;;;;;;;2.83;2.63;;;7.90;99.90;;;;;;5076228;28;20204;-89
2022/04/18 10:07:22;;;;;;;2.60;2.40;;;8.10;99.90;;;;;;5076495;28;20266;-89
2022/04/18 10:09:53;;;;;;;2.38;2.20;;;8.00;99.90;;;;;;5076331;28;20255;-90
2022/04/18 10:12:21;;;;;;;2.78;2.55;;;8.00;99.90;;;;;;5075591;28;20221;-90
2022/04/18 10:14:50;;;;;;;2.88;2.67;;;8.20;99.90;;;;;;5075952;28;20225;-90
2022/04/18 10:17:20;;;;;;;3.63;2.75;;;8.30;99.90;;;;;;5075931;28;20303;-89
2022/04/18 10:20:07;;;;;;;3.70;2.72;;;8.30;99.90;;;;;;5075948;28;20205;-90
2022/04/18 10:22:59;;;;;;;3.40;3.10;;;8.80;99.90;;;;;;5075929;28;20302;-90
2022/04/18 10:25:45;;;;;;;3.60;3.20;;;9.30;99.90;;;;;;5075798;28;20258;-89
2022/04/18 10:28:16;;;;;;;2.90;2.58;;;9.60;99.90;;;;;;5075954;28;20284;-88
2022/04/18 10:30:49;;;;;;;3.20;2.88;;;9.80;99.90;;;;;;5075025;28;20253;-89
2022/04/18 10:33:18;;;;;;;2.22;2.13;;;10.10;99.90;;;;;;5075425;28;20204;-88
2022/04/18 10:35:54;;;;;;;3.28;2.67;;;10.50;99.50;;;;;;5075187;28;20245;-88
2022/04/18 10:38:27;;;;;;;2.00;1.90;;;10.60;97.20;;;;;;5075682;28;20241;-88
2022/04/18 10:41:14;;;;;;;4.05;2.70;;;10.20;97.50;;;;;;5074903;28;20228;-88
2022/04/18 10:44:01;;;;;;;3.03;2.72;;;9.80;98.00;;;;;;5075382;28;20273;-88
2022/04/18 10:46:30;;;;;;;2.72;2.40;;;9.50;99.30;;;;;;5075121;28;20197;-88
2022/04/18 10:49:00;;;;;;;2.30;2.17;;;9.20;98.90;;;;;;5074768;28;20270;-89
2022/04/18 10:51:36;;;;;;;2.90;2.60;;;9.10;99.30;;;;;;5075277;28;20221;-88
2022/04/18 10:54:12;;;;;;;5.50;2.47;;;9.20;99.80;;;;;;5075361;28;20262;-88
2022/04/18 10:57:05;;;;;;;2.70;2.55;;;9.50;99.20;;;;;;5075042;28;20212;-88
2022/04/18 10:59:36;;;;;;;4.15;2.72;;;9.70;99.40;;;;;;5072827;28;20202;-88
2022/04/18 11:02:06;;;;;;;2.60;2.40;;;9.80;98.00;;;;;;5074751;28;20233;-88
2022/04/18 11:04:43;;;;;;;3.50;2.63;;;9.70;98.70;;;;;;5074820;28;20246;-88
2022/04/18 11:07:12;;;;;;;3.13;2.60;;;9.90;98.40;;;;;;5075099;28;20238;-88
2022/04/18 11:09:44;;;;;;;2.47;2.28;;;10.00;98.10;;;;;;5074829;28;20212;-88
2022/04/18 11:12:20;;;;;;;3.20;2.35;;;10.10;98.40;;;;;;5074635;28;20312;-88
2022/04/18 11:14:51;;;;;;;2.60;2.40;;;10.50;97.00;;;;;;5074728;28;20212;-88
2022/04/18 11:17:33;;;;;;;2.67;2.47;;;10.30;97.40;;;;;;5074424;28;20326;-89
2022/04/18 11:20:27;;;;;;;2.17;2.05;;;10.10;97.60;;;;;;5074605;28;20254;-88
2022/04/18 11:23:18;;;;;;;2.78;2.17;;;10.20;98.00;;;;;;5074875;28;20296;-88
2022/04/18 11:25:57;;;;;;;3.38;3.03;;;10.50;98.30;;;;;;5074374;28;20233;-88
2022/04/18 11:28:33;;;;;;;2.97;2.40;;;10.60;98.30;;;;;;5074172;28;20270;-89
2022/04/18 11:31:02;;;;;;;3.15;2.72;;;10.90;96.70;;;;;;5073956;28;20225;-89
2022/04/18 11:33:31;;;;;;;2.50;2.30;;;11.00;96.70;;;;;;5074279;28;20231;-88
2022/04/18 11:36:03;;;;;;;2.60;2.40;;;11.20;96.60;;;;;;5074680;28;20213;-88
2022/04/18 11:38:31;;;;;;;2.92;2.30;;;11.60;95.80;;;;;;5074113;28;20332;-88
2022/04/18 11:40:59;;;;;;;2.78;2.53;;;11.80;95.20;;;;;;5073712;28;20245;-88
2022/04/18 11:43:29;;;;;;;2.72;2.53;;;11.90;94.50;;;;;;5073170;28;20240;-88
2022/04/18 11:46:06;;;;;;;3.60;2.90;;;12.10;93.70;;;;;;5073718;28;20221;-88
2022/04/18 11:48:35;;;;;;;3.40;3.10;;;12.00;93.60;;;;;;5074390;28;20200;-88
2022/04/18 11:51:04;;;;;;;2.38;2.10;;;12.30;93.30;;;;;;5073613;28;20240;-88
2022/04/18 11:53:33;;;;;;;2.90;2.60;;;12.70;93.40;;;;;;5073900;28;20273;-88
2022/04/18 11:56:04;;;;;;;2.30;2.10;;;13.20;92.10;;;;;;5073512;28;20212;-88
2022/04/18 11:58:40;;;;;;;2.25;2.15;;;13.40;91.40;;;;;;5073450;28;20316;-88
2022/04/18 12:06:49;;;;;;;2.70;2.33;;;14.10;90.50;;;;;;5073620;28;20291;-88
2022/04/18 12:09:21;;;;;;;2.20;2.10;;;14.50;89.00;;;;;;5073382;28;20221;-88
2022/04/18 12:11:49;;;;;;;6.88;3.53;;;14.90;88.10;;;;;;5073105;28;20251;-88
2022/04/18 12:14:20;;;;;;;2.53;2.33;;;14.80;87.80;;;;;;5073521;28;20261;-88
2022/04/18 12:16:49;;;;;;;3.58;2.80;;;14.70;86.70;;;;;;5073641;28;20205;-88
2022/04/18 12:19:17;;;;;;;2.40;2.20;;;14.90;84.90;;;;;;5073071;28;20229;-88
2022/04/18 12:21:52;;;;;;;4.80;2.50;;;15.10;84.70;;;;;;5072888;28;20228;-88
2022/04/18 12:24:20;;;;;;;4.28;2.55;;;15.60;83.00;;;;;;5072984;28;20235;-88
2022/04/18 12:26:51;;;;;;;2.40;2.30;;;16.00;76.90;;;;;;5072970;28;20254;-88
2022/04/18 12:29:23;;;;;;;3.03;2.47;;;16.10;74.30;;;;;;5073427;28;20266;-87
2022/04/18 12:31:59;;;;;;;2.88;2.65;;;16.10;74.30;;;;;;5072938;28;20292;-88
2022/04/18 12:34:27;;;;;;;4.03;2.35;;;16.20;75.50;;;;;;5073204;28;20228;-88
2022/04/18 12:37:00;;;;;;;2.10;1.88;;;16.40;74.90;;;;;;5072799;28;20296;-88
2022/04/18 12:39:28;;;;;;;4.00;2.72;;;16.90;71.80;;;;;;5073189;28;20320;-88
2022/04/18 12:42:04;;;;;;;2.70;2.50;;;17.40;67.20;;;;;;5073330;28;20349;-88
2022/04/18 12:44:34;;;;;;;4.32;2.70;;;17.80;66.70;;;;;;5072970;28;20205;-88
2022/04/18 12:47:16;;;;;;;3.03;2.80;;;17.90;63.80;;;;;;5072952;28;20197;-88
2022/04/18 12:50:06;;;;;;;6.47;3.03;;;17.80;63.90;;;;;;5073179;28;20209;-88
2022/04/18 12:52:35;;;;;;;2.83;2.63;;;17.70;62.80;;;;;;5072677;28;20290;-88
2022/04/18 12:55:06;;;;;;;2.22;2.05;;;17.20;60.60;;;;;;5071698;28;20225;-88
2022/04/18 12:57:35;;;;;;;2.97;2.40;;;16.60;63.40;;;;;;5073071;28;20228;-88
2022/04/18 13:00:14;;;;;;;2.72;2.50;;;15.60;63.10;;;;;;5072672;28;20221;-88
2022/04/18 13:02:57;;;;;;;5.07;2.35;;;15.40;67.30;;;;;;5072908;28;20235;-88
2022/04/18 13:05:27;;;;;;;3.03;2.72;;;15.40;67.80;;;;;;5072915;28;20296;-88
2022/04/18 13:08:02;;;;;;;2.30;2.10;;;15.20;66.50;;;;;;5073232;28;20232;-88
2022/04/18 13:10:31;;;;;;;2.17;2.08;;;15.00;67.00;;;;;;5072422;28;20207;-88
2022/04/18 13:13:04;;;;;;;2.30;2.20;;;14.80;65.50;;;;;;5072769;28;20201;-87
2022/04/18 13:15:35;;;;;;;3.92;2.75;;;14.50;66.90;;;;;;5072513;28;20201;-88
2022/04/18 13:18:07;;;;;;;4.38;2.83;;;14.40;68.50;;;;;;5072919;28;20205;-88
2022/04/18 13:20:37;;;;;;;2.72;2.53;;;14.10;68.90;;;;;;5072277;28;20213;-88
2022/04/18 13:23:06;;;;;;;2.85;2.60;;;13.80;69.00;;;;;;5072897;28;20197;-88
2022/04/18 13:25:35;;;;;;;2.28;2.08;;;13.70;71.30;;;;;;5072730;28;20334;-88
2022/04/18 13:28:07;;;;;;;6.97;2.83;;;13.70;71.90;;;;;;5072557;28;20220;-88
2022/04/18 13:30:39;;;;;;;2.15;2.05;;;13.90;72.10;;;;;;5072191;28;20311;-88
2022/04/18 13:33:08;;;;;;;2.90;2.60;;;13.70;72.30;;;;;;5072278;28;20193;-88
2022/04/18 13:36:30;;;;;;;2.95;2.50;;;13.50;72.20;;;;;;5072631;28;20201;-88